createdAt,value
2018-10-17T00:01:52.806Z,25.80
2018-10-17T00:04:20.904Z,26.13
2018-10-17T00:06:48.888Z,24.90
2018-10-17T00:09:16.907Z,24.83
2018-10-17T00:11:44.908Z,25.60
2018-10-17T00:14:12.905Z,25.23
2018-10-17T00:16:40.910Z,26.40
2018-10-17T00:19:08.964Z,24.87
2018-10-17T00:21:36.888Z,24.60
2018-10-17T00:24:05.177Z,26.13
2018-10-17T00:26:33.196Z,26.33
2018-10-17T00:29:01.264Z,27.33
2018-10-17T00:31:29.300Z,28.30
2018-10-17T00:33:57.314Z,27.80
2018-10-17T00:36:25.309Z,29.53
2018-10-17T00:38:53.276Z,27.63
2018-10-17T00:41:21.248Z,28.73
2018-10-17T00:43:49.232Z,29.70
2018-10-17T00:46:17.321Z,30.10
2018-10-17T00:48:45.288Z,28.63
2018-10-17T00:51:13.408Z,28.33
2018-10-17T00:53:41.402Z,27.63
2018-10-17T00:56:09.625Z,28.70
2018-10-17T00:58:37.635Z,29.63
2018-10-17T01:01:05.716Z,29.80
2018-10-17T01:03:33.851Z,31.07
2018-10-17T01:06:01.848Z,30.80
2018-10-17T01:08:29.850Z,30.10
2018-10-17T01:10:57.843Z,27.73
2018-10-17T01:13:26.322Z,28.57
2018-10-17T01:15:54.369Z,27.50
2018-10-17T01:18:22.364Z,28.10
2018-10-17T01:20:50.568Z,28.90
2018-10-17T01:23:18.564Z,27.40
2018-10-17T01:25:46.548Z,28.03
2018-10-17T01:28:14.627Z,27.90
2018-10-17T01:30:42.616Z,28.10
2018-10-17T01:33:10.620Z,28.70
2018-10-17T01:35:38.618Z,27.90
2018-10-17T01:38:06.592Z,27.30
2018-10-17T01:40:34.593Z,28.03
2018-10-17T01:43:02.636Z,28.43
2018-10-17T01:45:30.584Z,28.20
2018-10-17T01:47:58.584Z,28.50
2018-10-17T01:50:26.593Z,27.03
2018-10-17T01:52:54.626Z,26.27
2018-10-17T01:55:22.573Z,27.10
2018-10-17T01:57:50.560Z,26.30
2018-10-17T02:00:18.567Z,27.43
2018-10-17T02:02:46.552Z,27.17
2018-10-17T02:05:14.614Z,28.30
2018-10-17T02:07:42.652Z,27.93
2018-10-17T02:10:10.652Z,26.23
2018-10-17T02:12:38.676Z,24.80
2018-10-17T02:15:06.768Z,26.73
2018-10-17T02:17:34.864Z,27.40
2018-10-17T02:20:02.904Z,28.33
2018-10-17T02:22:30.903Z,28.40
2018-10-17T02:24:58.956Z,26.40
2018-10-17T02:27:26.892Z,26.70
2018-10-17T02:29:54.911Z,27.87
2018-10-17T02:32:22.981Z,27.17
2018-10-17T02:34:56.436Z,27.60
2018-10-17T02:37:24.452Z,27.37
2018-10-17T02:39:52.433Z,27.87
2018-10-17T02:42:20.457Z,26.67
2018-10-17T02:44:48.440Z,27.40
2018-10-17T02:47:16.531Z,25.87
2018-10-17T02:49:44.417Z,27.87
2018-10-17T02:52:12.417Z,27.10
2018-10-17T02:54:40.387Z,27.40
2018-10-17T02:57:08.395Z,26.40
2018-10-17T02:59:36.389Z,26.67
2018-10-17T03:02:04.402Z,26.17
2018-10-17T03:04:32.397Z,26.97
2018-10-17T03:07:00.399Z,26.90
2018-10-17T03:09:28.360Z,26.37
2018-10-17T03:11:56.329Z,27.17
2018-10-17T03:14:24.361Z,28.10
2018-10-17T03:16:52.405Z,28.10
2018-10-17T03:19:20.442Z,29.23
2018-10-17T03:21:48.406Z,33.00
2018-10-17T03:24:16.426Z,29.50
2018-10-17T03:26:44.499Z,30.63
2018-10-17T03:29:12.633Z,30.20
2018-10-17T03:31:40.523Z,31.10
2018-10-17T03:34:08.508Z,29.93
2018-10-17T03:36:36.797Z,31.60
2018-10-17T03:39:07.770Z,29.50
2018-10-17T03:41:35.770Z,31.30
2018-10-17T03:44:03.778Z,30.40
2018-10-17T03:46:31.780Z,29.53
2018-10-17T03:48:59.831Z,29.33
2018-10-17T03:51:27.733Z,30.00
2018-10-17T03:53:55.717Z,28.83
2018-10-17T03:56:24.142Z,28.33
2018-10-17T03:58:52.180Z,29.10
2018-10-17T04:01:20.133Z,29.27
2018-10-17T04:03:48.133Z,28.60
2018-10-17T04:06:16.144Z,28.07
2018-10-17T04:08:44.157Z,27.63
2018-10-17T04:11:12.232Z,28.40
2018-10-17T04:13:40.187Z,28.43
2018-10-17T04:16:08.154Z,29.00
2018-10-17T04:18:36.213Z,28.20
2018-10-17T04:21:04.332Z,27.07
2018-10-17T04:23:32.406Z,28.13
2018-10-17T04:26:00.419Z,28.00
2018-10-17T04:28:28.424Z,26.73
2018-10-17T04:30:56.425Z,26.10
2018-10-17T04:33:24.435Z,25.67
2018-10-17T04:35:52.389Z,27.20
2018-10-17T04:38:20.383Z,26.43
2018-10-17T04:40:48.373Z,25.17
2018-10-17T04:43:16.539Z,25.23
2018-10-17T04:45:44.393Z,24.90
2018-10-17T04:48:12.393Z,25.17
2018-10-17T04:50:40.381Z,26.27
2018-10-17T04:53:08.422Z,25.83
2018-10-17T04:55:36.370Z,26.87
2018-10-17T04:58:04.471Z,26.40
2018-10-17T05:00:32.511Z,25.10
2018-10-17T05:03:00.497Z,25.20
2018-10-17T05:05:28.496Z,26.27
2018-10-17T05:07:56.498Z,26.67
2018-10-17T05:10:24.487Z,24.70
2018-10-17T05:12:52.651Z,24.83
2018-10-17T05:15:20.782Z,25.37
2018-10-17T05:17:48.689Z,26.00
2018-10-17T05:20:16.667Z,26.50
2018-10-17T05:22:44.653Z,25.50
2018-10-17T05:25:12.734Z,26.57
2018-10-17T05:27:40.645Z,26.23
2018-10-17T05:30:08.703Z,26.97
2018-10-17T05:32:36.725Z,29.27
2018-10-17T05:35:05.890Z,27.20
2018-10-17T05:37:33.866Z,26.50
2018-10-17T05:40:01.861Z,26.83
2018-10-17T05:42:30.217Z,25.97
2018-10-17T05:44:58.222Z,25.93
2018-10-17T05:47:26.234Z,26.57
2018-10-17T05:49:54.241Z,24.90
2018-10-17T05:52:22.312Z,24.53
2018-10-17T05:54:50.383Z,24.47
2018-10-17T05:57:18.358Z,25.33
2018-10-17T05:59:46.561Z,26.57
2018-10-17T06:02:18.446Z,26.30
2018-10-17T06:04:46.325Z,25.00
2018-10-17T06:07:14.386Z,23.90
2018-10-17T06:09:42.402Z,26.20
2018-10-17T06:12:10.430Z,24.83
2018-10-17T06:14:38.427Z,25.00
2018-10-17T06:17:06.547Z,25.80
2018-10-17T06:19:41.457Z,24.47
2018-10-17T06:22:09.629Z,25.50
2018-10-17T06:24:37.653Z,25.77
2018-10-17T06:27:05.723Z,25.53
2018-10-17T06:29:33.729Z,28.53
2018-10-17T06:32:01.812Z,26.97
2018-10-17T06:34:29.897Z,26.80
2018-10-17T06:36:57.885Z,25.97
2018-10-17T06:39:25.893Z,25.00
2018-10-17T06:41:53.999Z,25.10
2018-10-17T06:44:22.039Z,25.20
2018-10-17T06:46:50.097Z,25.27
2018-10-17T06:49:24.869Z,25.97
2018-10-17T06:51:52.857Z,25.43
2018-10-17T06:54:20.957Z,26.97
2018-10-17T06:56:48.960Z,25.23
2018-10-17T06:59:17.077Z,27.17
2018-10-17T07:01:45.184Z,29.00
2018-10-17T07:04:13.131Z,37.80
2018-10-17T07:06:41.338Z,52.60
2018-10-17T07:09:10.160Z,43.33
2018-10-17T07:11:38.361Z,31.00
2018-10-17T07:14:06.400Z,27.80
2018-10-17T07:16:34.438Z,25.60
2018-10-17T07:19:02.667Z,27.00
2018-10-17T07:21:30.685Z,26.13
2018-10-17T07:23:58.747Z,25.80
2018-10-17T07:26:26.751Z,24.77
2018-10-17T07:28:55.217Z,24.20
2018-10-17T07:31:23.189Z,24.37
2018-10-17T07:33:51.580Z,24.90
2018-10-17T07:36:19.761Z,25.93
2018-10-17T07:38:47.671Z,27.47
2018-10-17T07:41:15.746Z,24.90
2018-10-17T07:43:43.881Z,25.53
2018-10-17T07:46:11.905Z,25.63
2018-10-17T07:48:39.968Z,25.73
2018-10-17T07:51:08.043Z,24.20
2018-10-17T07:53:36.333Z,24.73
2018-10-17T07:56:04.440Z,28.07
2018-10-17T07:58:32.856Z,27.63
2018-10-17T08:01:00.894Z,26.43
2018-10-17T08:03:28.951Z,25.03
2018-10-17T08:05:56.934Z,26.83
2018-10-17T08:08:24.980Z,25.13
2018-10-17T08:10:52.962Z,22.83
2018-10-17T08:13:20.981Z,25.27
2018-10-17T08:15:48.971Z,24.57
2018-10-17T08:18:17.080Z,23.47
2018-10-17T08:20:45.034Z,23.43
2018-10-17T08:23:13.205Z,23.30
2018-10-17T08:25:41.265Z,23.50
2018-10-17T08:28:09.336Z,23.17
2018-10-17T08:30:37.332Z,22.30
2018-10-17T08:33:06.105Z,22.20
2018-10-17T08:35:34.223Z,23.07
2018-10-17T08:38:02.140Z,22.60
2018-10-17T08:40:30.101Z,22.07
2018-10-17T08:42:58.098Z,23.00
2018-10-17T08:45:26.105Z,22.97
2018-10-17T08:47:54.221Z,23.20
2018-10-17T08:50:22.177Z,21.13
2018-10-17T08:52:50.254Z,23.10
2018-10-17T08:55:18.269Z,22.20
2018-10-17T08:57:46.441Z,21.27
2018-10-17T09:00:14.369Z,21.57
2018-10-17T09:02:42.458Z,19.90
2018-10-17T09:05:10.585Z,20.07
2018-10-17T09:07:38.728Z,20.10
2018-10-17T09:10:06.871Z,19.40
2018-10-17T09:12:34.901Z,21.00
2018-10-17T09:15:02.991Z,18.77
2018-10-17T09:17:31.029Z,18.17
2018-10-17T09:19:59.366Z,18.67
2018-10-17T09:22:27.351Z,18.80
2018-10-17T09:24:55.230Z,17.60
2018-10-17T09:27:23.201Z,17.13
2018-10-17T09:29:51.216Z,19.67
2018-10-17T09:32:19.194Z,18.70
2018-10-17T09:34:47.362Z,18.30
2018-10-17T09:37:15.365Z,18.37
2018-10-17T09:39:43.880Z,17.80
2018-10-17T09:42:11.922Z,18.00
2018-10-17T09:44:39.862Z,18.53
2018-10-17T09:47:07.903Z,18.37
2018-10-17T09:49:35.997Z,18.00
2018-10-17T09:52:04.296Z,18.40
2018-10-17T09:54:32.262Z,15.97
2018-10-17T09:57:00.377Z,18.23
2018-10-17T09:59:28.548Z,16.83
2018-10-17T10:01:56.619Z,15.63
2018-10-17T10:04:24.658Z,15.63
2018-10-17T10:06:52.947Z,14.33
2018-10-17T10:09:21.188Z,14.93
2018-10-17T10:11:49.132Z,15.13
2018-10-17T10:14:17.116Z,11.80
2018-10-17T10:16:45.156Z,13.23
2018-10-17T10:19:13.182Z,12.63
2018-10-17T10:21:41.328Z,12.53
2018-10-17T10:24:09.530Z,13.00
2018-10-17T10:26:37.572Z,11.73
2018-10-17T10:29:05.623Z,12.30
2018-10-17T10:31:33.744Z,12.97
2018-10-17T10:34:01.819Z,14.57
2018-10-17T10:36:29.824Z,12.63
2018-10-17T10:38:57.855Z,13.07
2018-10-17T10:41:25.876Z,10.30
2018-10-17T10:43:53.924Z,10.80
2018-10-17T10:46:21.941Z,13.30
2018-10-17T10:48:49.964Z,11.30
2018-10-17T10:51:18.140Z,12.60
2018-10-17T10:53:46.085Z,12.67
2018-10-17T10:56:14.158Z,12.20
2018-10-17T10:58:42.264Z,11.10
2018-10-17T11:01:10.185Z,11.73
2018-10-17T11:03:38.277Z,11.80
2018-10-17T11:06:07.300Z,11.80
2018-10-17T11:08:35.451Z,11.23
2018-10-17T11:11:03.483Z,10.80
2018-10-17T11:13:31.476Z,11.50
2018-10-17T11:15:59.489Z,11.73
2018-10-17T11:18:27.535Z,9.90
2018-10-17T11:20:55.584Z,11.80
2018-10-17T11:23:23.529Z,10.93
2018-10-17T11:25:51.560Z,11.33
2018-10-17T11:28:19.810Z,10.80
2018-10-17T11:30:47.853Z,9.53
2018-10-17T11:33:15.939Z,10.27
2018-10-17T11:35:43.889Z,10.13
2018-10-17T11:38:11.865Z,10.10
2018-10-17T11:40:39.929Z,10.40
2018-10-17T11:43:07.873Z,10.10
2018-10-17T11:45:36.057Z,10.03
2018-10-17T11:48:04.042Z,9.83
2018-10-17T11:50:32.162Z,11.00
2018-10-17T11:53:00.070Z,9.97
2018-10-17T11:55:28.058Z,10.50
2018-10-17T11:57:56.082Z,12.03
2018-10-17T12:00:24.092Z,10.50
2018-10-17T12:02:53.008Z,10.93
2018-10-17T12:05:21.271Z,10.80
2018-10-17T12:07:49.020Z,11.40
2018-10-17T12:10:17.059Z,11.43
2018-10-17T12:12:45.030Z,9.23
2018-10-17T12:15:14.487Z,10.07
2018-10-17T12:17:42.591Z,10.00
2018-10-17T12:20:12.617Z,9.70
2018-10-17T12:22:41.404Z,9.80
2018-10-17T12:25:09.925Z,10.67
2018-10-17T12:27:38.394Z,10.50
2018-10-17T12:30:08.102Z,9.30
2018-10-17T12:32:36.106Z,9.87
2018-10-17T12:35:04.368Z,9.33
2018-10-17T12:37:32.689Z,11.10
2018-10-17T12:40:00.777Z,9.90
2018-10-17T12:42:28.798Z,10.00
2018-10-17T12:44:56.833Z,9.90
2018-10-17T12:47:31.635Z,11.03
2018-10-17T12:49:59.757Z,10.40
2018-10-17T12:52:27.750Z,10.60
2018-10-17T12:54:55.732Z,10.50
2018-10-17T12:57:23.686Z,9.80
2018-10-17T12:59:51.772Z,9.00
2018-10-17T13:02:19.758Z,10.73
2018-10-17T13:04:47.810Z,10.23
2018-10-17T13:07:15.963Z,10.67
2018-10-17T13:09:43.883Z,10.10
2018-10-17T13:12:11.882Z,10.30
2018-10-17T13:14:39.913Z,10.50
2018-10-17T13:17:08.120Z,9.70
2018-10-17T13:19:36.065Z,11.43
2018-10-17T13:22:04.104Z,12.00
2018-10-17T13:24:32.177Z,12.50
2018-10-17T13:27:00.177Z,11.00
2018-10-17T13:29:28.229Z,12.27
2018-10-17T13:31:56.289Z,11.47
2018-10-17T13:34:24.326Z,12.37
2018-10-17T13:36:52.330Z,12.10
2018-10-17T13:39:20.298Z,11.30
2018-10-17T13:41:48.353Z,11.77
2018-10-17T13:44:16.407Z,12.33
2018-10-17T13:46:44.582Z,14.83
2018-10-17T13:49:12.717Z,13.40
2018-10-17T13:51:40.570Z,14.10
2018-10-17T13:54:08.553Z,12.83
2018-10-17T13:56:36.591Z,12.77
2018-10-17T13:59:05.540Z,13.50
2018-10-17T14:01:33.569Z,13.60
2018-10-17T14:04:02.146Z,13.63
2018-10-17T14:06:30.126Z,14.53
2018-10-17T14:08:58.178Z,14.23
2018-10-17T14:11:26.161Z,15.30
2018-10-17T14:13:54.133Z,17.43
2018-10-17T14:16:22.101Z,15.97
2018-10-17T14:18:50.121Z,16.10
2018-10-17T14:21:18.194Z,17.03
2018-10-17T14:23:46.157Z,16.20
2018-10-17T14:26:14.227Z,18.23
2018-10-17T14:28:42.237Z,17.43
2018-10-17T14:31:10.302Z,16.97
2018-10-17T14:33:38.309Z,17.80
2018-10-17T14:36:06.511Z,17.90
2018-10-17T14:38:34.491Z,16.90
2018-10-17T14:41:02.575Z,17.60
2018-10-17T14:43:30.576Z,18.30
2018-10-17T14:45:58.643Z,20.00
2018-10-17T14:48:26.700Z,19.40
2018-10-17T14:50:54.725Z,17.13
2018-10-17T14:53:22.693Z,18.53
2018-10-17T14:55:50.777Z,17.03
2018-10-17T14:58:18.748Z,16.20
2018-10-17T15:00:46.838Z,17.60
2018-10-17T15:03:14.870Z,15.07
2018-10-17T15:05:42.877Z,15.73
2018-10-17T15:08:10.903Z,15.43
2018-10-17T15:10:39.045Z,13.03
2018-10-17T15:13:06.921Z,11.20
2018-10-17T15:15:38.973Z,12.43
2018-10-17T15:18:07.370Z,11.77
2018-10-17T15:20:35.552Z,16.47
2018-10-17T15:23:03.749Z,14.50
2018-10-17T15:25:31.948Z,15.97
2018-10-17T15:27:59.974Z,16.83
2018-10-17T15:30:28.020Z,17.40
2018-10-17T15:32:56.132Z,18.10
2018-10-17T15:35:24.082Z,19.13
2018-10-17T15:37:52.137Z,19.53
2018-10-17T15:40:20.164Z,17.13
2018-10-17T15:42:48.374Z,16.87
2018-10-17T15:45:16.531Z,15.00
2018-10-17T15:47:44.685Z,14.50
2018-10-17T15:50:12.737Z,14.83
2018-10-17T15:52:40.757Z,14.97
2018-10-17T15:55:08.778Z,14.30
2018-10-17T15:57:37.870Z,15.77
2018-10-17T16:00:08.469Z,13.50
2018-10-17T16:02:36.465Z,12.90
2018-10-17T16:05:05.922Z,12.30
2018-10-17T16:07:34.134Z,13.30
2018-10-17T16:10:02.178Z,12.93
2018-10-17T16:12:30.339Z,12.93
2018-10-17T16:14:58.484Z,13.90
2018-10-17T16:17:26.490Z,14.27
2018-10-17T16:19:54.536Z,14.00
2018-10-17T16:22:22.604Z,14.63
2018-10-17T16:24:50.655Z,14.60
2018-10-17T16:27:18.737Z,15.63
2018-10-17T16:29:46.761Z,15.67
2018-10-17T16:32:14.833Z,16.47
2018-10-17T16:34:42.786Z,16.90
2018-10-17T16:37:10.857Z,18.00
2018-10-17T16:39:38.901Z,18.27
2018-10-17T16:42:07.123Z,18.10
2018-10-17T16:44:35.137Z,18.70
2018-10-17T16:47:03.166Z,20.07
2018-10-17T16:49:31.212Z,20.53
2018-10-17T16:51:59.216Z,19.40
2018-10-17T16:54:27.213Z,20.70
2018-10-17T16:56:55.250Z,20.40
2018-10-17T16:59:23.231Z,21.03
2018-10-17T17:01:51.269Z,22.00
2018-10-17T17:04:19.350Z,23.37
2018-10-17T17:06:47.322Z,25.23
2018-10-17T17:09:15.563Z,22.40
2018-10-17T17:11:43.557Z,23.03
2018-10-17T17:14:11.608Z,20.70
2018-10-17T17:16:39.629Z,21.37
2018-10-17T17:19:08.623Z,16.60
2018-10-17T17:21:36.781Z,14.73
2018-10-17T17:24:04.937Z,15.83
2018-10-17T17:26:33.130Z,15.63
2018-10-17T17:29:01.247Z,16.43
2018-10-17T17:31:29.270Z,17.00
2018-10-17T17:33:57.281Z,18.00
2018-10-17T17:36:25.351Z,18.40
2018-10-17T17:38:53.483Z,20.20
2018-10-17T17:41:22.004Z,17.90
2018-10-17T17:43:50.061Z,19.20
2018-10-17T17:46:18.133Z,20.60
2018-10-17T17:48:46.175Z,19.53
2018-10-17T17:51:14.349Z,20.90
2018-10-17T17:53:42.391Z,21.63
2018-10-17T17:56:10.388Z,22.23
2018-10-17T17:58:38.533Z,22.93
2018-10-17T18:01:06.432Z,24.17
2018-10-17T18:03:34.497Z,24.73
2018-10-17T18:06:02.491Z,22.97
2018-10-17T18:08:30.543Z,22.90
2018-10-17T18:11:24.161Z,23.00
2018-10-17T18:13:53.147Z,21.53
2018-10-17T18:16:21.296Z,22.77
2018-10-17T18:18:49.329Z,24.70
2018-10-17T18:21:17.337Z,26.50
2018-10-17T18:23:45.715Z,26.37
2018-10-17T18:26:14.105Z,29.17
2018-10-17T18:28:42.878Z,27.60
2018-10-17T18:31:11.162Z,25.57
2018-10-17T18:33:39.220Z,24.80
2018-10-17T18:36:07.296Z,26.10
2018-10-17T18:38:35.261Z,25.23
2018-10-17T18:41:03.393Z,26.57
2018-10-17T18:43:31.389Z,27.30
2018-10-17T18:45:59.445Z,27.30
2018-10-17T18:48:27.443Z,28.73
2018-10-17T18:50:55.494Z,26.17
2018-10-17T18:53:23.465Z,25.70
2018-10-17T18:55:51.642Z,27.83
2018-10-17T18:58:19.525Z,27.93
2018-10-17T19:00:47.551Z,28.27
2018-10-17T19:03:15.621Z,28.50
2018-10-17T19:05:43.622Z,27.70
2018-10-17T19:08:11.627Z,27.23
2018-10-17T19:10:39.660Z,26.83
2018-10-17T19:13:07.708Z,25.73
2018-10-17T19:15:35.721Z,27.20
2018-10-17T19:18:03.851Z,26.40
2018-10-17T19:20:31.867Z,26.00
2018-10-17T19:22:59.918Z,25.30
2018-10-17T19:25:27.917Z,24.03
2018-10-17T19:27:56.074Z,27.40
2018-10-17T19:30:24.256Z,27.17
2018-10-17T19:32:52.315Z,24.83
2018-10-17T19:35:20.489Z,25.70
2018-10-17T19:37:48.523Z,27.87
2018-10-17T19:40:16.597Z,27.37
2018-10-17T19:42:44.589Z,27.33
2018-10-17T19:45:12.800Z,27.93
2018-10-17T19:47:41.102Z,28.27
2018-10-17T19:50:09.528Z,27.93
2018-10-17T19:52:37.716Z,27.50
2018-10-17T19:55:06.981Z,28.10
2018-10-17T19:57:35.045Z,26.93
2018-10-17T20:00:03.044Z,26.10
2018-10-17T20:02:31.103Z,26.87
2018-10-17T20:04:59.098Z,25.87
2018-10-17T20:07:27.171Z,25.30
2018-10-17T20:09:55.198Z,26.57
2018-10-17T20:12:23.193Z,24.87
2018-10-17T20:14:51.203Z,25.50
2018-10-17T20:17:19.220Z,25.17
2018-10-17T20:19:47.277Z,25.37
2018-10-17T20:22:15.370Z,25.17
2018-10-17T20:24:43.353Z,24.13
2018-10-17T20:27:11.395Z,24.43
2018-10-17T20:29:39.809Z,24.30
2018-10-17T20:32:08.386Z,23.63
2018-10-17T20:34:36.541Z,23.07
2018-10-17T20:37:04.590Z,23.90
2018-10-17T20:39:32.593Z,23.60
2018-10-17T20:42:00.787Z,23.20
2018-10-17T20:44:28.749Z,22.60
2018-10-17T20:46:56.808Z,24.10
2018-10-17T20:49:24.850Z,25.03
2018-10-17T20:51:52.925Z,24.90
2018-10-17T20:54:20.926Z,25.77
2018-10-17T20:56:49.208Z,27.90
2018-10-17T20:59:17.377Z,25.27
2018-10-17T21:01:45.407Z,27.10
2018-10-17T21:04:13.393Z,26.07
2018-10-17T21:06:41.565Z,27.50
2018-10-17T21:09:11.907Z,28.50
2018-10-17T21:11:40.234Z,27.87
2018-10-17T21:14:08.378Z,30.27
2018-10-17T21:16:36.356Z,31.80
2018-10-17T21:19:11.142Z,32.07
2018-10-17T21:21:39.441Z,31.60
2018-10-17T21:24:07.427Z,34.00
2018-10-17T21:26:35.472Z,35.83
2018-10-17T21:29:03.498Z,37.30
2018-10-17T21:31:31.498Z,36.20
2018-10-17T21:33:59.545Z,38.67
2018-10-17T21:36:27.538Z,38.97
2018-10-17T21:38:55.613Z,38.63
2018-10-17T21:41:23.673Z,38.43
2018-10-17T21:43:51.652Z,40.13
2018-10-17T21:46:19.729Z,40.30
2018-10-17T21:48:47.777Z,46.03
2018-10-17T21:51:15.773Z,45.03
2018-10-17T21:53:43.929Z,43.50
2018-10-17T21:56:11.937Z,45.10
2018-10-17T21:58:39.965Z,43.97
2018-10-17T22:01:08.151Z,45.10
2018-10-17T22:03:36.135Z,44.07
2018-10-17T22:06:04.153Z,43.03
2018-10-17T22:08:32.165Z,43.93
2018-10-17T22:11:00.198Z,41.53
2018-10-17T22:13:28.166Z,45.40
2018-10-17T22:15:56.173Z,45.67
2018-10-17T22:18:24.161Z,44.47
2018-10-17T22:20:52.135Z,45.43
2018-10-17T22:23:20.117Z,41.80
2018-10-17T22:25:48.154Z,43.40
2018-10-17T22:28:16.142Z,42.17
2018-10-17T22:30:44.187Z,44.30
2018-10-17T22:33:12.168Z,44.70
2018-10-17T22:35:40.182Z,44.83
2018-10-17T22:38:08.240Z,41.80
2018-10-17T22:40:36.177Z,45.97
2018-10-17T22:43:04.423Z,44.57
2018-10-17T22:45:32.414Z,46.90
2018-10-17T22:48:00.409Z,47.10
2018-10-17T22:50:28.389Z,44.37
2018-10-17T22:52:56.380Z,45.87
2018-10-17T22:55:24.441Z,47.37
2018-10-17T22:57:52.365Z,47.20
2018-10-17T23:00:20.365Z,44.73
2018-10-17T23:02:48.389Z,46.00
2018-10-17T23:05:16.473Z,49.10
2018-10-17T23:07:44.657Z,46.07
2018-10-17T23:10:12.680Z,45.03
2018-10-17T23:12:40.685Z,48.37
2018-10-17T23:15:10.995Z,47.73
2018-10-17T23:17:38.978Z,47.87
2018-10-17T23:20:07.042Z,48.77
2018-10-17T23:22:35.036Z,47.97
2018-10-17T23:25:03.081Z,47.97
2018-10-17T23:27:31.896Z,47.73
2018-10-17T23:29:59.919Z,48.77
2018-10-17T23:32:27.964Z,48.20
2018-10-17T23:34:55.974Z,50.33
2018-10-17T23:37:24.022Z,49.27
2018-10-17T23:39:52.066Z,48.47
2018-10-17T23:42:20.122Z,48.80
2018-10-17T23:44:48.161Z,49.17
2018-10-17T23:47:16.229Z,48.57
2018-10-17T23:49:44.251Z,47.80
2018-10-17T23:52:12.282Z,49.37
2018-10-17T23:54:40.426Z,49.77
2018-10-17T23:57:08.433Z,50.30
2018-10-17T23:59:36.487Z,49.17
